createdAt,value
2018-06-25T00:00:58.200Z,11.10
2018-06-25T00:05:00.391Z,13.40
2018-06-25T00:09:02.680Z,11.40
2018-06-25T00:13:05.396Z,10.73
2018-06-25T00:17:07.579Z,11.77
2018-06-25T00:21:09.797Z,12.23
2018-06-25T00:25:11.998Z,13.60
2018-06-25T00:29:14.421Z,11.87
2018-06-25T00:33:16.616Z,14.07
2018-06-25T00:37:18.816Z,10.73
2018-06-25T00:41:21.116Z,11.57
2018-06-25T00:45:23.348Z,11.10
2018-06-25T00:49:25.540Z,11.40
2018-06-25T00:53:27.723Z,10.50
2018-06-25T00:57:29.924Z,12.10
2018-06-25T01:01:32.140Z,10.63
2018-06-25T01:05:34.332Z,10.97
2018-06-25T01:09:36.523Z,11.20
2018-06-25T01:13:38.716Z,11.80
2018-06-25T01:17:40.928Z,11.50
2018-06-25T01:21:43.111Z,11.53
2018-06-25T01:25:45.311Z,9.83
2018-06-25T01:29:47.532Z,10.43
2018-06-25T01:33:49.740Z,11.00
2018-06-25T01:37:51.924Z,9.77
2018-06-25T01:41:54.096Z,9.80
2018-06-25T01:45:56.276Z,10.53
2018-06-25T01:49:58.455Z,11.10
2018-06-25T01:54:00.644Z,10.47
2018-06-25T01:58:02.896Z,10.10
2018-06-25T02:02:05.093Z,10.00
2018-06-25T02:06:07.341Z,10.70
2018-06-25T02:10:09.552Z,9.90
2018-06-25T02:14:11.747Z,10.93
2018-06-25T02:18:14.027Z,9.80
2018-06-25T02:22:16.215Z,9.60
2018-06-25T02:26:18.419Z,11.23
2018-06-25T02:30:20.690Z,11.27
2018-06-25T02:34:22.887Z,11.00
2018-06-25T02:38:25.121Z,10.27
2018-06-25T02:42:27.332Z,11.73
2018-06-25T02:46:29.520Z,10.53
2018-06-25T02:50:31.735Z,10.50
2018-06-25T02:54:33.924Z,10.13
2018-06-25T02:58:36.124Z,10.10
2018-06-25T03:02:38.320Z,10.20
2018-06-25T03:06:40.560Z,10.00
2018-06-25T03:10:42.761Z,10.00
2018-06-25T03:14:44.924Z,8.70
2018-06-25T03:18:47.089Z,11.10
2018-06-25T03:22:49.293Z,8.90
2018-06-25T03:26:51.456Z,9.80
2018-06-25T03:30:53.687Z,9.63
2018-06-25T03:34:55.872Z,9.40
2018-06-25T03:38:58.063Z,9.80
2018-06-25T03:43:00.267Z,9.40
2018-06-25T03:47:02.504Z,10.23
2018-06-25T03:51:05.041Z,10.33
2018-06-25T03:55:07.248Z,9.67
2018-06-25T03:59:09.443Z,8.97
2018-06-25T04:03:11.635Z,8.43
2018-06-25T04:07:13.832Z,9.60
2018-06-25T04:11:16.101Z,10.53
2018-06-25T04:15:18.929Z,9.50
2018-06-25T04:19:21.116Z,8.47
2018-06-25T04:23:23.291Z,9.60
2018-06-25T04:27:25.485Z,8.67
2018-06-25T04:31:28.180Z,10.50
2018-06-25T04:35:30.372Z,9.47
2018-06-25T04:39:32.535Z,8.90
2018-06-25T04:43:34.700Z,8.73
2018-06-25T04:47:36.904Z,8.80
2018-06-25T04:51:39.083Z,9.43
2018-06-25T04:55:41.289Z,8.80
2018-06-25T04:59:43.468Z,8.83
2018-06-25T05:03:45.709Z,7.10
2018-06-25T05:07:47.868Z,6.60
2018-06-25T05:11:50.072Z,7.53
2018-06-25T05:15:52.289Z,6.60
2018-06-25T05:19:54.475Z,6.97
2018-06-25T05:23:56.701Z,8.77
2018-06-25T05:27:58.904Z,6.47
2018-06-25T05:32:01.129Z,6.83
2018-06-25T05:36:03.359Z,7.77
2018-06-25T05:40:05.562Z,6.50
2018-06-25T05:44:07.819Z,6.60
2018-06-25T05:48:10.039Z,7.33
2018-06-25T05:52:12.194Z,6.70
2018-06-25T05:56:14.399Z,7.20
2018-06-25T06:00:16.579Z,5.87
2018-06-25T06:04:18.776Z,6.03
2018-06-25T06:08:20.996Z,6.60
2018-06-25T06:12:23.196Z,5.67
2018-06-25T06:16:25.395Z,5.70
2018-06-25T06:20:27.599Z,6.27
2018-06-25T06:24:30.215Z,6.10
2018-06-25T06:28:32.420Z,5.37
2018-06-25T06:32:34.644Z,6.63
2018-06-25T06:36:36.824Z,5.70
2018-06-25T06:40:39.020Z,6.33
2018-06-25T06:44:41.284Z,5.60
2018-06-25T06:48:43.491Z,7.10
2018-06-25T06:52:45.683Z,6.67
2018-06-25T06:56:47.889Z,6.10
2018-06-25T07:00:50.088Z,6.13
2018-06-25T07:04:52.297Z,6.27
2018-06-25T07:08:54.492Z,7.07
2018-06-25T07:12:56.684Z,6.00
2018-06-25T07:16:58.873Z,6.10
2018-06-25T07:21:01.057Z,5.97
2018-06-25T07:25:03.261Z,5.27
2018-06-25T07:29:05.485Z,5.57
2018-06-25T07:33:07.676Z,4.30
2018-06-25T07:37:09.884Z,4.73
2018-06-25T07:41:12.254Z,4.20
2018-06-25T07:45:14.428Z,4.67
2018-06-25T07:49:16.631Z,4.67
2018-06-25T07:53:18.816Z,4.80
2018-06-25T07:57:21.040Z,3.80
2018-06-25T08:01:23.220Z,4.13
2018-06-25T08:05:25.396Z,3.80
2018-06-25T08:09:27.587Z,4.17
2018-06-25T08:13:29.816Z,3.50
2018-06-25T08:17:32.032Z,3.83
2018-06-25T08:21:34.268Z,3.50
2018-06-25T08:25:36.476Z,3.23
2018-06-25T08:29:38.752Z,3.93
2018-06-25T08:33:40.958Z,4.03
2018-06-25T08:37:43.180Z,4.50
2018-06-25T08:41:45.365Z,4.93
2018-06-25T08:45:47.565Z,4.10
2018-06-25T08:49:49.747Z,4.00
2018-06-25T08:53:51.943Z,3.90
2018-06-25T08:57:54.132Z,4.10
2018-06-25T09:01:56.343Z,3.67
2018-06-25T09:05:58.540Z,3.77
2018-06-25T09:10:00.750Z,3.43
2018-06-25T09:14:03.103Z,5.60
2018-06-25T09:18:05.324Z,2.33
2018-06-25T09:22:07.563Z,2.70
2018-06-25T09:26:09.728Z,3.30
2018-06-25T09:30:11.945Z,3.03
2018-06-25T09:34:51.285Z,2.53
2018-06-25T09:38:53.476Z,2.50
2018-06-25T09:42:55.733Z,2.53
2018-06-25T09:46:57.946Z,2.63
2018-06-25T09:51:00.181Z,3.13
2018-06-25T09:55:02.412Z,3.20
2018-06-25T09:59:04.600Z,3.27
2018-06-25T10:03:06.811Z,3.13
2018-06-25T10:07:08.984Z,2.90
2018-06-25T10:11:11.176Z,3.57
2018-06-25T10:15:13.351Z,3.70
2018-06-25T10:19:15.639Z,3.07
2018-06-25T10:23:17.864Z,3.03
2018-06-25T10:27:20.068Z,3.07
2018-06-25T10:31:22.240Z,3.10
2018-06-25T10:35:24.441Z,3.43
2018-06-25T10:39:26.615Z,3.50
2018-06-25T10:43:28.836Z,3.30
2018-06-25T10:47:30.998Z,3.00
2018-06-25T10:51:33.205Z,3.80
2018-06-25T10:55:35.400Z,3.60
2018-06-25T10:59:37.692Z,3.40
2018-06-25T11:03:39.899Z,3.73
2018-06-25T11:07:42.321Z,3.63
2018-06-25T11:11:44.324Z,4.00
2018-06-25T11:15:46.599Z,4.67
2018-06-25T11:19:48.783Z,3.33
2018-06-25T11:23:50.964Z,3.83
2018-06-25T11:27:53.141Z,3.60
2018-06-25T11:31:55.321Z,3.50
2018-06-25T11:35:57.571Z,5.07
2018-06-25T11:39:59.789Z,4.57
2018-06-25T11:44:01.979Z,4.10
2018-06-25T11:48:04.166Z,3.20
2018-06-25T11:52:06.395Z,3.80
2018-06-25T11:56:08.584Z,4.53
2018-06-25T12:00:11.595Z,3.67
2018-06-25T12:04:13.783Z,2.67
2018-06-25T12:08:15.984Z,3.20
2018-06-25T12:12:18.155Z,3.23
2018-06-25T12:16:20.356Z,4.10
2018-06-25T12:20:22.525Z,3.30
2018-06-25T12:24:24.775Z,3.63
2018-06-25T12:28:27.063Z,3.87
2018-06-25T12:32:29.221Z,3.63
2018-06-25T12:36:31.488Z,3.83
2018-06-25T12:40:33.677Z,3.30
2018-06-25T12:44:35.968Z,4.13
2018-06-25T12:48:38.332Z,3.20
2018-06-25T12:52:40.515Z,3.70
2018-06-25T12:56:42.732Z,4.67
2018-06-25T13:00:44.995Z,4.73
2018-06-25T13:04:47.264Z,4.00
2018-06-25T13:08:49.448Z,3.50
2018-06-25T13:12:51.644Z,3.87
2018-06-25T13:16:53.860Z,3.40
2018-06-25T13:20:56.033Z,4.43
2018-06-25T13:24:58.229Z,3.97
2018-06-25T13:29:00.420Z,4.13
2018-06-25T13:33:02.588Z,4.10
2018-06-25T13:37:04.792Z,4.20
2018-06-25T13:41:07.054Z,3.70
2018-06-25T13:45:09.245Z,5.00
2018-06-25T13:49:11.457Z,4.67
2018-06-25T13:53:13.664Z,5.40
2018-06-25T13:57:15.844Z,5.40
2018-06-25T14:01:18.068Z,4.67
2018-06-25T14:05:20.299Z,5.40
2018-06-25T14:09:22.507Z,4.30
2018-06-25T14:13:24.715Z,4.87
2018-06-25T14:17:26.929Z,5.03
2018-06-25T14:21:29.184Z,4.00
2018-06-25T14:25:36.005Z,4.83
2018-06-25T14:29:38.212Z,5.17
2018-06-25T14:33:42.601Z,5.03
2018-06-25T14:37:45.552Z,3.90
2018-06-25T14:41:47.725Z,4.57
2018-06-25T14:45:49.913Z,4.50
2018-06-25T14:49:52.081Z,5.60
2018-06-25T14:53:54.400Z,5.57
2018-06-25T14:57:56.568Z,3.90
2018-06-25T15:01:58.744Z,5.50
2018-06-25T15:06:00.925Z,5.33
2018-06-25T15:10:03.158Z,5.83
2018-06-25T15:14:05.500Z,4.27
2018-06-25T15:18:08.064Z,4.37
2018-06-25T15:22:10.248Z,3.87
2018-06-25T15:26:12.388Z,4.70
2018-06-25T15:30:14.600Z,4.73
2018-06-25T15:34:16.952Z,4.73
2018-06-25T15:38:19.168Z,4.43
2018-06-25T15:42:21.372Z,4.60
2018-06-25T15:46:23.549Z,4.70
2018-06-25T15:50:25.753Z,4.70
2018-06-25T15:54:27.975Z,4.10
2018-06-25T15:58:30.192Z,5.27
2018-06-25T16:02:32.400Z,4.03
2018-06-25T16:06:34.585Z,4.83
2018-06-25T16:10:36.784Z,4.60
2018-06-25T16:14:38.957Z,5.60
2018-06-25T16:18:41.175Z,4.77
2018-06-25T16:22:43.415Z,5.57
2018-06-25T16:26:45.761Z,5.40
2018-06-25T16:30:47.944Z,4.93
2018-06-25T16:34:50.127Z,4.80
2018-06-25T16:38:52.337Z,5.63
2018-06-25T16:42:54.560Z,5.97
2018-06-25T16:46:56.764Z,5.17
2018-06-25T16:50:58.948Z,5.00
2018-06-25T16:55:01.141Z,4.70
2018-06-25T16:59:03.381Z,5.57
2018-06-25T17:03:05.545Z,4.43
2018-06-25T17:07:07.768Z,5.00
2018-06-25T17:11:09.968Z,5.50
2018-06-25T17:15:12.184Z,4.83
2018-06-25T17:19:14.433Z,5.47
2018-06-25T17:23:16.620Z,4.90
2018-06-25T17:27:18.903Z,4.40
2018-06-25T17:31:21.089Z,4.60
2018-06-25T17:35:23.305Z,4.63
2018-06-25T17:39:25.508Z,4.67
2018-06-25T17:43:27.692Z,4.23
2018-06-25T17:47:29.920Z,4.00
2018-06-25T17:51:32.121Z,5.20
2018-06-25T17:55:34.356Z,4.50
2018-06-25T17:59:36.548Z,5.40
2018-06-25T18:03:38.737Z,6.77
2018-06-25T18:07:40.924Z,5.77
2018-06-25T18:11:43.128Z,5.30
2018-06-25T18:15:45.421Z,7.10
2018-06-25T18:19:47.609Z,5.27
2018-06-25T18:23:49.779Z,5.70
2018-06-25T18:27:51.983Z,5.60
2018-06-25T18:31:54.156Z,6.87
2018-06-25T18:35:56.363Z,5.63
2018-06-25T18:39:58.571Z,8.03
2018-06-25T18:44:00.746Z,5.87
2018-06-25T18:48:02.968Z,8.23
2018-06-25T18:52:05.180Z,6.83
2018-06-25T18:56:07.424Z,7.53
2018-06-25T19:00:09.958Z,6.80
2018-06-25T19:04:12.156Z,7.50
2018-06-25T19:08:14.348Z,7.27
2018-06-25T19:12:16.552Z,7.10
2018-06-25T19:16:18.812Z,6.77
2018-06-25T19:20:21.008Z,6.37
2018-06-25T19:24:23.228Z,6.77
2018-06-25T19:28:25.449Z,6.77
2018-06-25T19:32:27.644Z,6.30
2018-06-25T19:36:29.847Z,7.47
2018-06-25T19:40:32.128Z,6.63
2018-06-25T19:44:34.284Z,7.37
2018-06-25T19:48:36.454Z,8.23
2018-06-25T19:52:38.668Z,8.40
2018-06-25T19:56:40.896Z,7.53
2018-06-25T20:00:43.116Z,8.47
2018-06-25T20:04:45.808Z,9.30
2018-06-25T20:08:48.172Z,8.30
2018-06-25T20:12:50.388Z,8.30
2018-06-25T20:16:52.588Z,8.30
2018-06-25T20:20:54.845Z,9.63
2018-06-25T20:24:57.024Z,9.03
2018-06-25T20:28:59.240Z,8.63
2018-06-25T20:33:01.429Z,8.80
2018-06-25T20:37:03.757Z,7.60
2018-06-25T20:41:06.010Z,8.60
2018-06-25T20:45:08.208Z,7.73
2018-06-25T20:49:10.368Z,8.27
2018-06-25T20:53:12.571Z,7.77
2018-06-25T20:57:14.881Z,9.70
2018-06-25T21:01:17.132Z,6.80
2018-06-25T21:05:19.348Z,7.83
2018-06-25T21:09:21.560Z,9.10
2018-06-25T21:13:23.916Z,8.23
2018-06-25T21:17:26.115Z,8.97
2018-06-25T21:21:29.528Z,9.13
2018-06-25T21:25:31.707Z,8.63
2018-06-25T21:29:33.957Z,8.73
2018-06-25T21:33:36.128Z,8.00
2018-06-25T21:37:39.316Z,10.13
2018-06-25T21:41:41.515Z,9.20
2018-06-25T21:45:43.728Z,7.93
2018-06-25T21:49:45.967Z,7.10
2018-06-25T21:53:48.160Z,7.97
2018-06-25T21:57:50.413Z,7.60
2018-06-25T22:01:54.572Z,9.30
2018-06-25T22:05:56.736Z,7.83
2018-06-25T22:09:58.940Z,7.00
2018-06-25T22:14:01.138Z,7.97
2018-06-25T22:18:04.184Z,7.90
2018-06-25T22:22:06.356Z,6.17
2018-06-25T22:26:08.644Z,7.33
2018-06-25T22:30:10.843Z,7.80
2018-06-25T22:34:13.033Z,7.53
2018-06-25T22:38:15.220Z,8.50
2018-06-25T22:42:17.509Z,8.80
2018-06-25T22:46:19.758Z,8.30
2018-06-25T22:50:21.954Z,8.30
2018-06-25T22:54:24.128Z,8.60
2018-06-25T22:58:26.300Z,8.60
2018-06-25T23:02:28.512Z,7.77
2018-06-25T23:06:30.728Z,7.43
2018-06-25T23:10:32.992Z,8.40
2018-06-25T23:14:35.192Z,7.67
2018-06-25T23:18:37.383Z,8.03
2018-06-25T23:22:39.548Z,8.47
2018-06-25T23:26:41.717Z,7.70
2018-06-25T23:30:43.888Z,6.77
2018-06-25T23:34:46.064Z,8.00
2018-06-25T23:38:48.232Z,7.70
2018-06-25T23:42:50.424Z,8.53
2018-06-25T23:46:52.636Z,7.90
2018-06-25T23:50:54.858Z,7.43
2018-06-25T23:54:57.060Z,6.50
2018-06-25T23:58:59.256Z,7.53
